sensor_id;sensor_type;location;lat;lon;timestamp;pressure;altitude;pressure_sealevel;temperature;humidity
2841;BME280;53423;49.224;12.074;2023-03-30T00:00:00;97607.47;;;9.41;66.54
2841;BME280;53423;49.224;12.074;2023-03-30T00:02:39;97604.56;;;9.44;66.50
2841;BME280;53423;49.224;12.074;2023-03-30T00:05:11;97604.41;;;9.45;66.82
2841;BME280;53423;49.224;12.074;2023-03-30T00:07:40;97612.94;;;9.47;66.46
2841;BME280;53423;49.224;12.074;2023-03-30T00:10:09;97610.75;;;9.43;66.46
2841;BME280;53423;49.224;12.074;2023-03-30T00:12:38;97618.00;;;9.49;66.44
2841;BME280;53423;49.224;12.074;2023-03-30T00:15:07;97610.25;;;9.31;66.39
2841;BME280;53423;49.224;12.074;2023-03-30T00:17:36;97613.00;;;9.22;67.02
2841;BME280;53423;49.224;12.074;2023-03-30T00:20:05;97601.72;;;9.29;67.05
2841;BME280;53423;49.224;12.074;2023-03-30T00:22:39;97598.34;;;9.45;66.75
2841;BME280;53423;49.224;12.074;2023-03-30T00:25:09;97585.09;;;9.46;66.89
2841;BME280;53423;49.224;12.074;2023-03-30T00:27:38;97577.91;;;9.40;66.79
2841;BME280;53423;49.224;12.074;2023-03-30T00:30:09;97580.88;;;9.45;66.83
2841;BME280;53423;49.224;12.074;2023-03-30T00:32:38;97570.22;;;9.39;67.52
2841;BME280;53423;49.224;12.074;2023-03-30T00:35:07;97564.31;;;9.29;67.55
2841;BME280;53423;49.224;12.074;2023-03-30T00:37:36;97578.25;;;9.37;67.29
2841;BME280;53423;49.224;12.074;2023-03-30T00:40:08;97570.06;;;9.48;67.27
2841;BME280;53423;49.224;12.074;2023-03-30T00:42:39;97565.19;;;9.53;67.01
2841;BME280;53423;49.224;12.074;2023-03-30T00:45:20;97561.56;;;9.38;67.56
2841;BME280;53423;49.224;12.074;2023-03-30T00:47:52;97556.00;;;9.41;67.60
2841;BME280;53423;49.224;12.074;2023-03-30T00:50:25;97555.81;;;9.35;67.74
2841;BME280;53423;49.224;12.074;2023-03-30T00:52:56;97555.50;;;9.38;67.46
2841;BME280;53423;49.224;12.074;2023-03-30T00:55:29;97542.88;;;9.25;68.30
2841;BME280;53423;49.224;12.074;2023-03-30T00:57:58;97553.38;;;9.41;67.71
2841;BME280;53423;49.224;12.074;2023-03-30T01:00:26;97549.31;;;9.39;67.67
2841;BME280;53423;49.224;12.074;2023-03-30T01:02:58;97544.19;;;9.29;67.85
2841;BME280;53423;49.224;12.074;2023-03-30T01:05:28;97547.97;;;9.35;68.05
2841;BME280;53423;49.224;12.074;2023-03-30T01:07:57;97543.41;;;9.37;67.63
2841;BME280;53423;49.224;12.074;2023-03-30T01:10:28;97540.13;;;9.35;67.87
2841;BME280;53423;49.224;12.074;2023-03-30T01:12:56;97537.50;;;9.27;68.17
2841;BME280;53423;49.224;12.074;2023-03-30T01:15:24;97535.72;;;9.35;67.95
2841;BME280;53423;49.224;12.074;2023-03-30T01:18:05;97535.72;;;9.27;67.90
2841;BME280;53423;49.224;12.074;2023-03-30T01:21:05;97525.59;;;9.32;67.78
2841;BME280;53423;49.224;12.074;2023-03-30T01:26:55;97517.41;;;9.35;67.83
2841;BME280;53423;49.224;12.074;2023-03-30T01:29:37;97507.91;;;9.26;67.81
2841;BME280;53423;49.224;12.074;2023-03-30T01:32:42;97518.88;;;9.30;67.92
2841;BME280;53423;49.224;12.074;2023-03-30T01:35:30;97504.78;;;9.31;67.81
2841;BME280;53423;49.224;12.074;2023-03-30T01:38:20;97506.94;;;9.27;67.71
2841;BME280;53423;49.224;12.074;2023-03-30T01:41:03;97505.78;;;9.30;67.62
2841;BME280;53423;49.224;12.074;2023-03-30T01:43:36;97507.28;;;9.32;67.75
2841;BME280;53423;49.224;12.074;2023-03-30T01:46:11;97498.09;;;9.28;67.84
2841;BME280;53423;49.224;12.074;2023-03-30T01:48:44;97505.44;;;9.25;68.16
2841;BME280;53423;49.224;12.074;2023-03-30T01:51:19;97500.56;;;9.30;68.02
2841;BME280;53423;49.224;12.074;2023-03-30T01:53:54;97507.28;;;9.32;67.75
2841;BME280;53423;49.224;12.074;2023-03-30T01:56:26;97507.63;;;9.37;67.81
2841;BME280;53423;49.224;12.074;2023-03-30T01:59:00;97501.31;;;9.06;68.66
2841;BME280;53423;49.224;12.074;2023-03-30T02:01:31;97496.78;;;9.24;68.50
2841;BME280;53423;49.224;12.074;2023-03-30T02:04:02;97491.88;;;9.21;68.02
2841;BME280;53423;49.224;12.074;2023-03-30T02:06:35;97497.25;;;9.20;68.35
2841;BME280;53423;49.224;12.074;2023-03-30T02:09:07;97493.19;;;9.25;68.34
2841;BME280;53423;49.224;12.074;2023-03-30T02:11:41;97487.47;;;9.30;68.34
2841;BME280;53423;49.224;12.074;2023-03-30T02:14:12;97475.84;;;9.24;68.01
2841;BME280;53423;49.224;12.074;2023-03-30T02:16:45;97480.13;;;9.25;68.07
2841;BME280;53423;49.224;12.074;2023-03-30T02:19:14;97489.44;;;9.36;67.85
2841;BME280;53423;49.224;12.074;2023-03-30T02:21:43;97486.81;;;9.36;67.63
2841;BME280;53423;49.224;12.074;2023-03-30T02:24:14;97488.81;;;9.34;67.66
2841;BME280;53423;49.224;12.074;2023-03-30T02:26:48;97482.09;;;9.39;67.73
2841;BME280;53423;49.224;12.074;2023-03-30T02:29:17;97469.19;;;9.38;67.49
2841;BME280;53423;49.224;12.074;2023-03-30T02:31:47;97470.47;;;9.26;68.13
2841;BME280;53423;49.224;12.074;2023-03-30T02:34:22;97471.78;;;9.30;68.11
2841;BME280;53423;49.224;12.074;2023-03-30T02:37:13;97462.50;;;9.43;67.21
2841;BME280;53423;49.224;12.074;2023-03-30T02:39:54;97457.41;;;9.34;67.53
2841;BME280;53423;49.224;12.074;2023-03-30T02:45:39;97440.25;;;9.23;67.86
2841;BME280;53423;49.224;12.074;2023-03-30T02:48:19;97440.91;;;9.25;68.29
2841;BME280;53423;49.224;12.074;2023-03-30T02:50:55;97430.44;;;9.33;68.04
2841;BME280;53423;49.224;12.074;2023-03-30T02:53:31;97417.53;;;9.32;68.07
2841;BME280;53423;49.224;12.074;2023-03-30T02:56:01;97409.69;;;9.40;68.23
2841;BME280;53423;49.224;12.074;2023-03-30T02:58:40;97419.66;;;9.28;68.14
2841;BME280;53423;49.224;12.074;2023-03-30T03:01:15;97416.06;;;9.37;67.87
2841;BME280;53423;49.224;12.074;2023-03-30T03:03:46;97415.41;;;9.43;67.85
2841;BME280;53423;49.224;12.074;2023-03-30T03:06:17;97409.19;;;9.44;67.71
2841;BME280;53423;49.224;12.074;2023-03-30T03:08:46;97420.13;;;9.40;68.05
2841;BME280;53423;49.224;12.074;2023-03-30T03:11:15;97428.66;;;9.42;68.00
2841;BME280;53423;49.224;12.074;2023-03-30T03:13:43;97438.94;;;9.35;68.01
2841;BME280;53423;49.224;12.074;2023-03-30T03:16:12;97442.53;;;9.26;68.65
2841;BME280;53423;49.224;12.074;2023-03-30T03:18:41;97432.56;;;9.38;68.54
2841;BME280;53423;49.224;12.074;2023-03-30T03:21:10;97435.84;;;9.40;68.31
2841;BME280;53423;49.224;12.074;2023-03-30T03:23:39;97432.88;;;9.35;68.45
2841;BME280;53423;49.224;12.074;2023-03-30T03:26:08;97426.19;;;9.32;68.84
2841;BME280;53423;49.224;12.074;2023-03-30T03:28:37;97435.19;;;9.46;68.03
2841;BME280;53423;49.224;12.074;2023-03-30T03:31:05;97438.44;;;9.40;68.37
2841;BME280;53423;49.224;12.074;2023-03-30T03:33:35;97438.94;;;9.35;68.59
2841;BME280;53423;49.224;12.074;2023-03-30T03:36:03;97443.19;;;9.36;69.07
2841;BME280;53423;49.224;12.074;2023-03-30T03:38:31;97427.66;;;9.43;68.83
2841;BME280;53423;49.224;12.074;2023-03-30T03:40:59;97425.19;;;9.49;68.43
2841;BME280;53423;49.224;12.074;2023-03-30T03:43:27;97425.88;;;9.43;68.71
2841;BME280;53423;49.224;12.074;2023-03-30T03:45:55;97417.34;;;9.41;68.43
2841;BME280;53423;49.224;12.074;2023-03-30T03:48:24;97417.03;;;9.60;67.46
2841;BME280;53423;49.224;12.074;2023-03-30T03:50:55;97427.19;;;9.55;68.40
2841;BME280;53423;49.224;12.074;2023-03-30T03:53:24;97426.69;;;9.52;68.19
2841;BME280;53423;49.224;12.074;2023-03-30T03:55:53;97419.66;;;9.52;68.55
2841;BME280;53423;49.224;12.074;2023-03-30T03:58:21;97421.13;;;9.55;68.34
2841;BME280;53423;49.224;12.074;2023-03-30T04:00:49;97422.28;;;9.60;68.19
2841;BME280;53423;49.224;12.074;2023-03-30T04:03:17;97429.28;;;9.60;68.32
2841;BME280;53423;49.224;12.074;2023-03-30T04:05:46;97441.22;;;9.54;68.00
2841;BME280;53423;49.224;12.074;2023-03-30T04:08:15;97434.53;;;9.52;68.29
2841;BME280;53423;49.224;12.074;2023-03-30T04:10:43;97429.94;;;9.62;67.88
2841;BME280;53423;49.224;12.074;2023-03-30T04:13:11;97434.53;;;9.52;68.40
2841;BME280;53423;49.224;12.074;2023-03-30T04:15:39;97445.16;;;9.50;68.50
2841;BME280;53423;49.224;12.074;2023-03-30T04:18:07;97448.75;;;9.49;68.77
2841;BME280;53423;49.224;12.074;2023-03-30T04:20:35;97443.38;;;9.51;68.62
2841;BME280;53423;49.224;12.074;2023-03-30T04:23:03;97454.31;;;9.54;68.68
2841;BME280;53423;49.224;12.074;2023-03-30T04:25:32;97459.69;;;9.53;68.89
2841;BME280;53423;49.224;12.074;2023-03-30T04:28:01;97463.47;;;9.58;68.51
2841;BME280;53423;49.224;12.074;2023-03-30T04:30:30;97458.91;;;9.52;68.85
2841;BME280;53423;49.224;12.074;2023-03-30T04:32:58;97459.22;;;9.57;68.24
2841;BME280;53423;49.224;12.074;2023-03-30T04:35:31;97454.97;;;9.40;69.06
2841;BME280;53423;49.224;12.074;2023-03-30T04:38:00;97443.13;;;9.04;70.51
2841;BME280;53423;49.224;12.074;2023-03-30T04:40:28;97443.13;;;8.96;70.33
2841;BME280;53423;49.224;12.074;2023-03-30T04:42:58;97435.63;;;9.01;70.20
2841;BME280;53423;49.224;12.074;2023-03-30T04:45:30;97447.06;;;9.00;70.31
2841;BME280;53423;49.224;12.074;2023-03-30T04:47:58;97452.00;;;9.19;69.45
2841;BME280;53423;49.224;12.074;2023-03-30T04:50:25;97447.75;;;9.10;70.14
2841;BME280;53423;49.224;12.074;2023-03-30T04:52:53;97438.75;;;9.13;70.18
2841;BME280;53423;49.224;12.074;2023-03-30T04:55:21;97442.69;;;9.25;69.78
2841;BME280;53423;49.224;12.074;2023-03-30T04:57:49;97440.56;;;9.28;69.69
2841;BME280;53423;49.224;12.074;2023-03-30T05:00:20;97440.56;;;9.36;69.36
2841;BME280;53423;49.224;12.074;2023-03-30T05:02:48;97449.41;;;9.43;69.21
2841;BME280;53423;49.224;12.074;2023-03-30T05:05:16;97447.78;;;9.50;69.15
2841;BME280;53423;49.224;12.074;2023-03-30T05:07:44;97449.72;;;9.64;68.65
2841;BME280;53423;49.224;12.074;2023-03-30T05:10:12;97450.22;;;9.68;68.27
2841;BME280;53423;49.224;12.074;2023-03-30T05:12:39;97470.69;;;9.72;68.78
2841;BME280;53423;49.224;12.074;2023-03-30T05:15:08;97461.16;;;9.79;68.62
2841;BME280;53423;49.224;12.074;2023-03-30T05:17:38;97457.09;;;9.77;68.74
2841;BME280;53423;49.224;12.074;2023-03-30T05:20:06;97449.41;;;9.83;68.73
2841;BME280;53423;49.224;12.074;2023-03-30T05:22:35;97440.53;;;9.84;69.14
2841;BME280;53423;49.224;12.074;2023-03-30T05:25:04;97447.09;;;9.64;70.19
2841;BME280;53423;49.224;12.074;2023-03-30T05:27:33;97448.78;;;9.57;70.47
2841;BME280;53423;49.224;12.074;2023-03-30T05:30:01;97441.41;;;9.45;71.11
2841;BME280;53423;49.224;12.074;2023-03-30T05:32:29;97445.50;;;9.55;71.11
2841;BME280;53423;49.224;12.074;2023-03-30T05:34:59;97442.88;;;9.63;70.88
2841;BME280;53423;49.224;12.074;2023-03-30T05:37:26;97436.50;;;9.66;71.05
2841;BME280;53423;49.224;12.074;2023-03-30T05:39:55;97443.34;;;9.75;70.48
2841;BME280;53423;49.224;12.074;2023-03-30T05:42:23;97449.72;;;9.80;70.42
2841;BME280;53423;49.224;12.074;2023-03-30T05:44:51;97451.03;;;9.68;70.94
2841;BME280;53423;49.224;12.074;2023-03-30T05:47:19;97445.47;;;9.63;70.68
2841;BME280;53423;49.224;12.074;2023-03-30T05:49:48;97451.22;;;9.67;71.12
2841;BME280;53423;49.224;12.074;2023-03-30T05:52:17;97448.91;;;9.72;71.56
2841;BME280;53423;49.224;12.074;2023-03-30T05:54:47;97438.25;;;9.81;70.76
2841;BME280;53423;49.224;12.074;2023-03-30T05:57:14;97439.59;;;9.77;71.41
2841;BME280;53423;49.224;12.074;2023-03-30T05:59:43;97442.38;;;9.84;71.59
2841;BME280;53423;49.224;12.074;2023-03-30T06:02:11;97442.53;;;9.82;71.50
2841;BME280;53423;49.224;12.074;2023-03-30T06:04:39;97452.97;;;9.98;71.06
2841;BME280;53423;49.224;12.074;2023-03-30T06:07:07;97454.28;;;10.02;71.30
2841;BME280;53423;49.224;12.074;2023-03-30T06:09:37;97467.72;;;9.99;72.22
2841;BME280;53423;49.224;12.074;2023-03-30T06:12:05;97463.44;;;10.06;71.57
2841;BME280;53423;49.224;12.074;2023-03-30T06:14:33;97474.06;;;10.13;71.63
2841;BME280;53423;49.224;12.074;2023-03-30T06:17:01;97467.56;;;10.09;71.69
2841;BME280;53423;49.224;12.074;2023-03-30T06:19:29;97473.63;;;10.10;72.09
2841;BME280;53423;49.224;12.074;2023-03-30T06:21:57;97473.78;;;10.16;71.59
2841;BME280;53423;49.224;12.074;2023-03-30T06:24:25;97479.66;;;9.94;72.97
2841;BME280;53423;49.224;12.074;2023-03-30T06:26:54;97468.03;;;9.96;73.12
2841;BME280;53423;49.224;12.074;2023-03-30T06:29:22;97454.78;;;9.90;73.64
2841;BME280;53423;49.224;12.074;2023-03-30T06:31:50;97446.25;;;10.04;72.93
2841;BME280;53423;49.224;12.074;2023-03-30T06:34:19;97440.03;;;10.05;72.76
2841;BME280;53423;49.224;12.074;2023-03-30T06:36:47;97435.13;;;10.10;72.66
2841;BME280;53423;49.224;12.074;2023-03-30T06:39:15;97434.47;;;10.00;73.57
2841;BME280;53423;49.224;12.074;2023-03-30T06:41:43;97415.00;;;10.02;73.43
2841;BME280;53423;49.224;12.074;2023-03-30T06:44:12;97415.19;;;9.85;74.88
2841;BME280;53423;49.224;12.074;2023-03-30T06:46:41;97421.09;;;9.87;74.80
2841;BME280;53423;49.224;12.074;2023-03-30T06:49:10;97405.00;;;9.98;74.27
2841;BME280;53423;49.224;12.074;2023-03-30T06:51:38;97392.44;;;9.93;75.52
2841;BME280;53423;49.224;12.074;2023-03-30T06:54:07;97384.44;;;9.87;77.21
2841;BME280;53423;49.224;12.074;2023-03-30T06:56:35;97389.84;;;9.85;77.18
2841;BME280;53423;49.224;12.074;2023-03-30T06:59:03;97391.16;;;9.89;77.44
2841;BME280;53423;49.224;12.074;2023-03-30T07:01:33;97397.50;;;9.95;78.07
2841;BME280;53423;49.224;12.074;2023-03-30T07:04:02;97388.00;;;10.02;77.68
2841;BME280;53423;49.224;12.074;2023-03-30T07:06:31;97365.75;;;10.14;78.06
2841;BME280;53423;49.224;12.074;2023-03-30T07:08:59;97327.59;;;10.20;77.34
2841;BME280;53423;49.224;12.074;2023-03-30T07:11:27;97341.38;;;9.97;79.41
2841;BME280;53423;49.224;12.074;2023-03-30T07:13:55;97355.63;;;10.11;79.23
2841;BME280;53423;49.224;12.074;2023-03-30T07:16:24;97364.19;;;10.36;78.95
2841;BME280;53423;49.224;12.074;2023-03-30T07:18:53;97374.50;;;10.68;76.57
2841;BME280;53423;49.224;12.074;2023-03-30T07:21:21;97370.44;;;10.57;77.94
2841;BME280;53423;49.224;12.074;2023-03-30T07:23:49;97368.44;;;10.67;77.45
2841;BME280;53423;49.224;12.074;2023-03-30T07:26:17;97369.13;;;10.92;76.96
2841;BME280;53423;49.224;12.074;2023-03-30T07:28:45;97375.75;;;11.02;76.52
2841;BME280;53423;49.224;12.074;2023-03-30T07:31:13;97377.50;;;11.10;76.21
2841;BME280;53423;49.224;12.074;2023-03-30T07:33:42;97377.06;;;10.76;77.91
2841;BME280;53423;49.224;12.074;2023-03-30T07:36:12;97381.75;;;10.88;77.43
2841;BME280;53423;49.224;12.074;2023-03-30T07:38:40;97385.00;;;10.90;77.52
2841;BME280;53423;49.224;12.074;2023-03-30T07:41:09;97380.13;;;11.10;76.88
2841;BME280;53423;49.224;12.074;2023-03-30T07:43:38;97370.41;;;11.18;76.61
2841;BME280;53423;49.224;12.074;2023-03-30T07:46:07;97364.88;;;11.51;75.16
2841;BME280;53423;49.224;12.074;2023-03-30T07:48:35;97375.03;;;11.31;75.80
2841;BME280;53423;49.224;12.074;2023-03-30T07:51:04;97369.03;;;11.60;76.02
2841;BME280;53423;49.224;12.074;2023-03-30T07:53:33;97366.13;;;11.55;75.05
2841;BME280;53423;49.224;12.074;2023-03-30T07:56:02;97342.97;;;11.81;74.54
2841;BME280;53423;49.224;12.074;2023-03-30T07:58:31;97360.69;;;11.93;74.37
2841;BME280;53423;49.224;12.074;2023-03-30T08:00:59;97353.72;;;12.00;73.54
2841;BME280;53423;49.224;12.074;2023-03-30T08:03:28;97351.56;;;11.89;74.87
2841;BME280;53423;49.224;12.074;2023-03-30T08:05:59;97367.09;;;11.76;74.94
2841;BME280;53423;49.224;12.074;2023-03-30T08:08:30;97375.53;;;11.86;75.05
2841;BME280;53423;49.224;12.074;2023-03-30T08:10:59;97367.50;;;12.02;73.62
2841;BME280;53423;49.224;12.074;2023-03-30T08:13:28;97372.50;;;11.97;74.21
2841;BME280;53423;49.224;12.074;2023-03-30T08:15:58;97354.28;;;11.96;74.24
2841;BME280;53423;49.224;12.074;2023-03-30T08:18:26;97367.50;;;12.02;73.34
2841;BME280;53423;49.224;12.074;2023-03-30T08:20:54;97355.72;;;11.98;74.06
2841;BME280;53423;49.224;12.074;2023-03-30T08:23:22;97373.28;;;11.98;74.20
2841;BME280;53423;49.224;12.074;2023-03-30T08:25:50;97366.13;;;11.92;73.30
2841;BME280;53423;49.224;12.074;2023-03-30T08:28:20;97376.56;;;12.00;73.13
2841;BME280;53423;49.224;12.074;2023-03-30T08:30:48;97381.63;;;12.01;73.59
2841;BME280;53423;49.224;12.074;2023-03-30T08:33:16;97387.41;;;11.82;73.31
2841;BME280;53423;49.224;12.074;2023-03-30T08:35:44;97392.22;;;11.56;74.73
2841;BME280;53423;49.224;12.074;2023-03-30T08:38:13;97401.69;;;11.65;73.71
2841;BME280;53423;49.224;12.074;2023-03-30T08:40:44;97400.09;;;11.56;73.93
2841;BME280;53423;49.224;12.074;2023-03-30T08:43:40;97407.50;;;11.53;74.84
2841;BME280;53423;49.224;12.074;2023-03-30T08:46:13;97409.06;;;11.62;74.73
2841;BME280;53423;49.224;12.074;2023-03-30T08:48:43;97394.25;;;11.46;74.27
2841;BME280;53423;49.224;12.074;2023-03-30T08:51:19;97383.50;;;11.78;74.63
2841;BME280;53423;49.224;12.074;2023-03-30T08:53:52;97372.72;;;11.73;74.23
2841;BME280;53423;49.224;12.074;2023-03-30T08:56:23;97369.19;;;11.66;75.08
2841;BME280;53423;49.224;12.074;2023-03-30T08:59:05;97359.81;;;12.15;73.39
2841;BME280;53423;49.224;12.074;2023-03-30T09:01:43;97350.75;;;11.74;74.10
2841;BME280;53423;49.224;12.074;2023-03-30T09:04:21;97348.22;;;11.58;74.40
2841;BME280;53423;49.224;12.074;2023-03-30T09:06:53;97336.97;;;11.72;75.28
2841;BME280;53423;49.224;12.074;2023-03-30T09:09:24;97343.97;;;11.94;75.47
2841;BME280;53423;49.224;12.074;2023-03-30T09:11:58;97342.84;;;12.32;74.82
2841;BME280;53423;49.224;12.074;2023-03-30T09:14:35;97329.50;;;12.34;74.58
2841;BME280;53423;49.224;12.074;2023-03-30T09:17:07;97331.56;;;12.53;73.46
2841;BME280;53423;49.224;12.074;2023-03-30T09:19:47;97324.81;;;12.65;72.18
2841;BME280;53423;49.224;12.074;2023-03-30T09:22:17;97335.84;;;12.39;72.25
2841;BME280;53423;49.224;12.074;2023-03-30T09:24:46;97347.44;;;12.45;73.78
2841;BME280;53423;49.224;12.074;2023-03-30T09:27:21;97357.59;;;12.33;73.48
2841;BME280;53423;49.224;12.074;2023-03-30T09:29:53;97369.47;;;12.44;72.95
2841;BME280;53423;49.224;12.074;2023-03-30T09:32:30;97393.06;;;12.23;73.09
2841;BME280;53423;49.224;12.074;2023-03-30T09:35:04;97406.88;;;11.88;74.30
2841;BME280;53423;49.224;12.074;2023-03-30T09:37:33;97422.31;;;12.05;74.68
2841;BME280;53423;49.224;12.074;2023-03-30T09:40:16;97440.59;;;11.99;74.94
2841;BME280;53423;49.224;12.074;2023-03-30T09:42:51;97459.00;;;11.99;73.72
2841;BME280;53423;49.224;12.074;2023-03-30T09:45:28;97469.09;;;11.87;74.64
2841;BME280;53423;49.224;12.074;2023-03-30T09:48:03;97487.13;;;11.90;75.15
2841;BME280;53423;49.224;12.074;2023-03-30T09:50:36;97488.66;;;11.85;74.88
2841;BME280;53423;49.224;12.074;2023-03-30T09:53:10;97482.72;;;11.91;74.79
2841;BME280;53423;49.224;12.074;2023-03-30T09:55:54;97466.75;;;11.92;73.63
2841;BME280;53423;49.224;12.074;2023-03-30T09:58:29;97451.09;;;11.84;74.18
2841;BME280;53423;49.224;12.074;2023-03-30T10:01:04;97430.91;;;11.62;74.50
2841;BME280;53423;49.224;12.074;2023-03-30T10:03:34;97420.41;;;11.17;76.04
2841;BME280;53423;49.224;12.074;2023-03-30T10:06:04;97431.94;;;11.53;75.78
2841;BME280;53423;49.224;12.074;2023-03-30T10:08:39;97417.22;;;11.89;74.75
2841;BME280;53423;49.224;12.074;2023-03-30T10:11:08;97418.50;;;12.22;73.27
2841;BME280;53423;49.224;12.074;2023-03-30T10:13:40;97419.75;;;12.26;73.68
2841;BME280;53423;49.224;12.074;2023-03-30T10:16:20;97425.56;;;12.07;73.77
2841;BME280;53423;49.224;12.074;2023-03-30T10:18:52;97423.22;;;12.12;73.62
2841;BME280;53423;49.224;12.074;2023-03-30T10:21:21;97422.94;;;12.07;74.09
2841;BME280;53423;49.224;12.074;2023-03-30T10:24:02;97427.00;;;12.10;73.66
2841;BME280;53423;49.224;12.074;2023-03-30T10:26:31;97442.88;;;12.16;73.86
2841;BME280;53423;49.224;12.074;2023-03-30T10:29:02;97438.00;;;12.28;73.11
2841;BME280;53423;49.224;12.074;2023-03-30T10:31:35;97427.31;;;12.29;72.92
2841;BME280;53423;49.224;12.074;2023-03-30T10:34:05;97433.47;;;12.22;73.35
2841;BME280;53423;49.224;12.074;2023-03-30T10:36:40;97439.09;;;12.19;73.38
2841;BME280;53423;49.224;12.074;2023-03-30T10:39:11;97422.31;;;12.05;74.40
2841;BME280;53423;49.224;12.074;2023-03-30T10:41:45;97424.31;;;12.32;74.36
2841;BME280;53423;49.224;12.074;2023-03-30T10:44:18;97418.06;;;12.33;73.46
2841;BME280;53423;49.224;12.074;2023-03-30T10:46:52;97423.41;;;12.55;73.00
2841;BME280;53423;49.224;12.074;2023-03-30T10:49:31;97409.78;;;12.66;72.50
2841;BME280;53423;49.224;12.074;2023-03-30T10:52:09;97413.38;;;12.79;71.81
2841;BME280;53423;49.224;12.074;2023-03-30T10:54:45;97408.16;;;12.65;72.65
2841;BME280;53423;49.224;12.074;2023-03-30T10:57:17;97399.38;;;12.93;72.45
2841;BME280;53423;49.224;12.074;2023-03-30T11:00:02;97407.50;;;13.13;72.20
2841;BME280;53423;49.224;12.074;2023-03-30T11:02:55;97406.47;;;13.28;72.23
2841;BME280;53423;49.224;12.074;2023-03-30T11:05:29;97407.38;;;13.21;71.59
2841;BME280;53423;49.224;12.074;2023-03-30T11:08:01;97391.59;;;13.42;71.69
2841;BME280;53423;49.224;12.074;2023-03-30T11:10:30;97376.53;;;13.57;70.86
2841;BME280;53423;49.224;12.074;2023-03-30T11:13:01;97375.56;;;13.16;71.39
2841;BME280;53423;49.224;12.074;2023-03-30T11:15:34;97370.09;;;13.17;72.07
2841;BME280;53423;49.224;12.074;2023-03-30T11:18:10;97369.13;;;13.18;71.30
2841;BME280;53423;49.224;12.074;2023-03-30T11:20:44;97348.19;;;12.96;72.23
2841;BME280;53423;49.224;12.074;2023-03-30T11:23:19;97356.72;;;12.77;72.91
2841;BME280;53423;49.224;12.074;2023-03-30T11:26:00;97373.13;;;13.14;72.72
2841;BME280;53423;49.224;12.074;2023-03-30T11:28:46;97359.09;;;12.93;73.10
2841;BME280;53423;49.224;12.074;2023-03-30T11:31:27;97334.06;;;13.18;72.65
2841;BME280;53423;49.224;12.074;2023-03-30T11:34:05;97324.41;;;12.47;74.37
2841;BME280;53423;49.224;12.074;2023-03-30T11:36:42;97329.72;;;12.18;76.43
2841;BME280;53423;49.224;12.074;2023-03-30T11:39:15;97346.13;;;12.05;77.10
2841;BME280;53423;49.224;12.074;2023-03-30T11:42:03;97358.09;;;12.08;77.19
2841;BME280;53423;49.224;12.074;2023-03-30T11:44:36;97342.13;;;12.24;76.82
2841;BME280;53423;49.224;12.074;2023-03-30T11:47:16;97330.06;;;12.15;77.40
2841;BME280;53423;49.224;12.074;2023-03-30T11:50:00;97344.84;;;12.01;77.30
2841;BME280;53423;49.224;12.074;2023-03-30T11:52:34;97351.72;;;12.31;76.40
2841;BME280;53423;49.224;12.074;2023-03-30T11:55:27;97372.38;;;12.34;75.95
2841;BME280;53423;49.224;12.074;2023-03-30T11:58:06;97373.47;;;12.25;76.21
2841;BME280;53423;49.224;12.074;2023-03-30T12:00:53;97386.44;;;12.12;77.81
2841;BME280;53423;49.224;12.074;2023-03-30T12:03:34;97377.00;;;12.32;77.14
2841;BME280;53423;49.224;12.074;2023-03-30T12:06:28;97376.38;;;12.81;76.17
2841;BME280;53423;49.224;12.074;2023-03-30T12:09:05;97346.50;;;13.03;74.66
2841;BME280;53423;49.224;12.074;2023-03-30T12:11:45;97323.28;;;12.92;75.78
2841;BME280;53423;49.224;12.074;2023-03-30T12:14:29;97348.00;;;12.97;75.32
2841;BME280;53423;49.224;12.074;2023-03-30T12:17:01;97337.03;;;13.08;75.93
2841;BME280;53423;49.224;12.074;2023-03-30T12:19:39;97346.66;;;13.22;75.63
2841;BME280;53423;49.224;12.074;2023-03-30T12:22:28;97345.91;;;13.07;74.78
2841;BME280;53423;49.224;12.074;2023-03-30T12:25:02;97337.91;;;13.15;76.21
2841;BME280;53423;49.224;12.074;2023-03-30T12:27:35;97356.94;;;13.38;75.46
2841;BME280;53423;49.224;12.074;2023-03-30T12:30:12;97365.81;;;13.58;73.97
2841;BME280;53423;49.224;12.074;2023-03-30T12:32:59;97362.50;;;13.50;74.52
2841;BME280;53423;49.224;12.074;2023-03-30T12:35:55;97339.88;;;13.34;74.01
2841;BME280;53423;49.224;12.074;2023-03-30T12:38:27;97318.53;;;13.44;74.60
2841;BME280;53423;49.224;12.074;2023-03-30T12:41:07;97323.31;;;13.34;73.69
2841;BME280;53423;49.224;12.074;2023-03-30T12:43:53;97322.34;;;13.41;73.89
2841;BME280;53423;49.224;12.074;2023-03-30T12:46:30;97340.63;;;13.49;74.03
2841;BME280;53423;49.224;12.074;2023-03-30T12:49:12;97337.13;;;13.70;73.45
2841;BME280;53423;49.224;12.074;2023-03-30T12:51:56;97333.03;;;13.95;73.39
2841;BME280;53423;49.224;12.074;2023-03-30T12:57:38;97322.50;;;13.95;72.68
2841;BME280;53423;49.224;12.074;2023-03-30T13:00:29;97335.22;;;13.85;73.61
2841;BME280;53423;49.224;12.074;2023-03-30T13:03:23;97330.78;;;13.92;73.67
2841;BME280;53423;49.224;12.074;2023-03-30T13:05:53;97333.09;;;14.08;73.78
2841;BME280;53423;49.224;12.074;2023-03-30T13:08:30;97323.34;;;14.36;72.15
2841;BME280;53423;49.224;12.074;2023-03-30T13:11:09;97320.94;;;14.41;72.78
2841;BME280;53423;49.224;12.074;2023-03-30T13:13:49;97324.47;;;14.68;72.33
2841;BME280;53423;49.224;12.074;2023-03-30T13:16:44;97324.50;;;14.74;72.05
2841;BME280;53423;49.224;12.074;2023-03-30T13:19:19;97332.94;;;14.57;71.98
2841;BME280;53423;49.224;12.074;2023-03-30T13:21:48;97327.75;;;14.83;71.92
2841;BME280;53423;49.224;12.074;2023-03-30T13:24:35;97326.28;;;14.61;72.42
2841;BME280;53423;49.224;12.074;2023-03-30T13:27:22;97316.41;;;14.89;71.92
2841;BME280;53423;49.224;12.074;2023-03-30T13:29:53;97304.69;;;15.57;70.81
2841;BME280;53423;49.224;12.074;2023-03-30T13:35:31;97305.88;;;15.09;70.56
2841;BME280;53423;49.224;12.074;2023-03-30T13:38:39;97299.16;;;15.13;69.89
2841;BME280;53423;49.224;12.074;2023-03-30T13:41:23;97297.13;;;15.80;67.58
2841;BME280;53423;49.224;12.074;2023-03-30T13:44:19;97289.44;;;16.36;65.71
2841;BME280;53423;49.224;12.074;2023-03-30T13:46:51;97288.25;;;16.76;64.24